This is the latest recevied weather packets stored in our database for station/object N6RDS-8. If no packets are shown the sender has not sent any weather packets the latest 10 day(s).
| Time | Temp. | Humidity | Pressure | Rain* | Wind** | Luminosity | Snow |
|---|---|---|---|---|---|---|---|
| 1777739763 | 20.56° C | 52% | 1022.4 hPa | 0 mm | - | 602 W/m² | - |
| 1777739460 | 19.44° C | 56% | 1022.4 hPa | 0 mm | - | 565 W/m² | - |
| 1777739156 | 20° C | 54% | 1022.5 hPa | 0 mm | - | 177 W/m² | - |
| 1777738854 | 19.44° C | 54% | 1022.5 hPa | 0 mm | - | 350 W/m² | - |
| 1777738550 | 20° C | 53% | 1022.3 hPa | 0 mm | - | 222 W/m² | - |
| 1777738248 | 20° C | 54% | 1022.5 hPa | 0 mm | - | 478 W/m² | - |
| 1777737946 | 20° C | 54% | 1022.4 hPa | 0 mm | - | 572 W/m² | - |
| 1777737644 | 18.89° C | 55% | 1022.5 hPa | 0 mm | - | 499 W/m² | - |
| 1777737342 | 18.89° C | 56% | 1022.3 hPa | 0 mm | - | 392 W/m² | - |
| 1777737039 | 18.89° C | 56% | 1022.6 hPa | 0 mm | - | 179 W/m² | - |
| 1777736734 | 18.89° C | 56% | 1022.4 hPa | 0 mm | - | 478 W/m² | - |
| 1777736107 | 18.89° C | 56% | 1022.4 hPa | 0 mm | - | 356 W/m² | - |
| 1777735804 | 18.89° C | 57% | 1022.4 hPa | 0 mm | - | 162 W/m² | - |
| 1777735501 | 18.89° C | 58% | 1022.3 hPa | 0 mm | - | 390 W/m² | - |
| 1777735199 | 18.33° C | 59% | 1022 hPa | 0 mm | - | 143 W/m² | - |
| 1777734896 | 18.33° C | 57% | 1022.3 hPa | 0 mm | - | 391 W/m² | - |
| 1777734593 | 18.33° C | 58% | 1022.3 hPa | 0 mm | - | 224 W/m² | - |
| 1777734290 | 18.89° C | 58% | 1022.2 hPa | 0 mm | - | 331 W/m² | - |
| 1777733986 | 17.78° C | 61% | 1022 hPa | 0 mm | - | 316 W/m² | - |
| 1777733683 | 17.22° C | 63% | 1022 hPa | 0 mm | - | 290 W/m² | - |
| 1777733379 | 16.67° C | 63% | 1022 hPa | 0 mm | - | 238 W/m² | - |
| 1777733076 | 16.67° C | 65% | 1021.8 hPa | 0 mm | - | 236 W/m² | - |
| 1777732772 | 17.22° C | 63% | 1021.7 hPa | 0 mm | - | 77 W/m² | - |
| 1777732469 | 16.67° C | 63% | 1021.8 hPa | 0 mm | - | 206 W/m² | - |
| 1777732167 | 16.11° C | 65% | 1021.7 hPa | 0 mm | - | 189 W/m² | - |
* Rain latest hour (hover to see other rain measurements)
** Current wind speed in m/s (hover to see current wind gust speed)